sensor_id;sensor_type;location;lat;lon;timestamp;P1;durP1;ratioP1;P2;durP2;ratioP2
289;SDS011;13193;48.874;9.086;2022-09-27T00:01:02;2.23;;;0.80;;
289;SDS011;13193;48.874;9.086;2022-09-27T00:03:30;1.33;;;0.70;;
289;SDS011;13193;48.874;9.086;2022-09-27T00:06:00;1.87;;;0.77;;
289;SDS011;13193;48.874;9.086;2022-09-27T00:08:32;3.27;;;0.73;;
289;SDS011;13193;48.874;9.086;2022-09-27T00:11:09;2.00;;;0.80;;
289;SDS011;13193;48.874;9.086;2022-09-27T00:13:57;1.90;;;0.80;;
289;SDS011;13193;48.874;9.086;2022-09-27T00:16:26;1.80;;;0.90;;
289;SDS011;13193;48.874;9.086;2022-09-27T00:18:58;1.50;;;0.90;;
289;SDS011;13193;48.874;9.086;2022-09-27T00:21:25;1.93;;;1.00;;
289;SDS011;13193;48.874;9.086;2022-09-27T00:23:54;1.43;;;0.87;;
289;SDS011;13193;48.874;9.086;2022-09-27T00:26:20;1.47;;;0.60;;
289;SDS011;13193;48.874;9.086;2022-09-27T00:28:45;2.43;;;0.80;;
289;SDS011;13193;48.874;9.086;2022-09-27T00:31:18;1.60;;;0.87;;
289;SDS011;13193;48.874;9.086;2022-09-27T00:33:50;1.70;;;0.70;;
289;SDS011;13193;48.874;9.086;2022-09-27T00:36:17;1.87;;;0.80;;
289;SDS011;13193;48.874;9.086;2022-09-27T00:38:44;1.33;;;0.67;;
289;SDS011;13193;48.874;9.086;2022-09-27T00:41:21;2.07;;;0.60;;
289;SDS011;13193;48.874;9.086;2022-09-27T00:46:36;1.73;;;0.50;;
289;SDS011;13193;48.874;9.086;2022-09-27T00:54:50;1.40;;;0.80;;
289;SDS011;13193;48.874;9.086;2022-09-27T00:57:18;2.10;;;0.70;;
289;SDS011;13193;48.874;9.086;2022-09-27T00:59:46;6.77;;;1.10;;
289;SDS011;13193;48.874;9.086;2022-09-27T01:02:16;1.80;;;0.70;;
289;SDS011;13193;48.874;9.086;2022-09-27T01:04:42;1.30;;;0.70;;
289;SDS011;13193;48.874;9.086;2022-09-27T01:07:09;1.00;;;0.50;;
289;SDS011;13193;48.874;9.086;2022-09-27T01:09:35;1.30;;;0.70;;
289;SDS011;13193;48.874;9.086;2022-09-27T01:17:43;1.10;;;0.60;;
289;SDS011;13193;48.874;9.086;2022-09-27T01:23:46;1.53;;;0.60;;
289;SDS011;13193;48.874;9.086;2022-09-27T01:29:12;1.87;;;0.80;;
289;SDS011;13193;48.874;9.086;2022-09-27T01:37:34;2.20;;;0.83;;
289;SDS011;13193;48.874;9.086;2022-09-27T01:43:21;1.10;;;0.50;;
289;SDS011;13193;48.874;9.086;2022-09-27T01:46:10;1.80;;;0.80;;
289;SDS011;13193;48.874;9.086;2022-09-27T01:48:44;1.63;;;0.73;;
289;SDS011;13193;48.874;9.086;2022-09-27T01:51:17;1.87;;;1.00;;
289;SDS011;13193;48.874;9.086;2022-09-27T01:53:49;1.40;;;0.60;;
289;SDS011;13193;48.874;9.086;2022-09-27T01:56:23;1.30;;;0.70;;
289;SDS011;13193;48.874;9.086;2022-09-27T02:01:26;5.07;;;0.63;;
289;SDS011;13193;48.874;9.086;2022-09-27T02:03:55;1.30;;;0.70;;
289;SDS011;13193;48.874;9.086;2022-09-27T02:06:34;2.13;;;0.50;;
289;SDS011;13193;48.874;9.086;2022-09-27T02:09:07;1.13;;;0.60;;
289;SDS011;13193;48.874;9.086;2022-09-27T02:11:40;2.23;;;0.90;;
289;SDS011;13193;48.874;9.086;2022-09-27T02:14:21;2.40;;;1.10;;
289;SDS011;13193;48.874;9.086;2022-09-27T02:16:53;2.20;;;0.70;;
289;SDS011;13193;48.874;9.086;2022-09-27T02:27:54;1.00;;;0.50;;
289;SDS011;13193;48.874;9.086;2022-09-27T02:30:25;1.33;;;0.70;;
289;SDS011;13193;48.874;9.086;2022-09-27T02:32:51;1.87;;;0.53;;
289;SDS011;13193;48.874;9.086;2022-09-27T02:35:27;1.10;;;0.60;;
289;SDS011;13193;48.874;9.086;2022-09-27T02:37:58;1.40;;;0.70;;
289;SDS011;13193;48.874;9.086;2022-09-27T02:40:25;2.40;;;0.50;;
289;SDS011;13193;48.874;9.086;2022-09-27T02:42:56;2.03;;;0.90;;
289;SDS011;13193;48.874;9.086;2022-09-27T02:45:23;1.37;;;0.70;;
289;SDS011;13193;48.874;9.086;2022-09-27T02:48:18;1.33;;;0.60;;
289;SDS011;13193;48.874;9.086;2022-09-27T02:50:59;2.60;;;0.83;;
289;SDS011;13193;48.874;9.086;2022-09-27T03:02:12;6.03;;;1.20;;
289;SDS011;13193;48.874;9.086;2022-09-27T03:04:46;3.57;;;1.13;;
289;SDS011;13193;48.874;9.086;2022-09-27T03:07:17;5.73;;;1.40;;
289;SDS011;13193;48.874;9.086;2022-09-27T03:09:46;8.43;;;1.27;;
289;SDS011;13193;48.874;9.086;2022-09-27T03:12:13;3.30;;;1.10;;
289;SDS011;13193;48.874;9.086;2022-09-27T03:14:50;4.63;;;1.50;;
289;SDS011;13193;48.874;9.086;2022-09-27T03:17:16;1.57;;;1.13;;
289;SDS011;13193;48.874;9.086;2022-09-27T03:19:42;4.27;;;1.37;;
289;SDS011;13193;48.874;9.086;2022-09-27T03:22:08;6.57;;;2.20;;
289;SDS011;13193;48.874;9.086;2022-09-27T03:24:33;2.83;;;1.27;;
289;SDS011;13193;48.874;9.086;2022-09-27T03:26:59;4.00;;;1.77;;
289;SDS011;13193;48.874;9.086;2022-09-27T03:29:25;4.27;;;1.40;;
289;SDS011;13193;48.874;9.086;2022-09-27T03:31:50;6.60;;;1.80;;
289;SDS011;13193;48.874;9.086;2022-09-27T03:34:16;3.87;;;1.43;;
289;SDS011;13193;48.874;9.086;2022-09-27T03:36:41;4.27;;;1.50;;
289;SDS011;13193;48.874;9.086;2022-09-27T03:39:07;8.77;;;2.60;;
289;SDS011;13193;48.874;9.086;2022-09-27T03:41:33;8.37;;;2.40;;
289;SDS011;13193;48.874;9.086;2022-09-27T03:43:59;3.83;;;1.40;;
289;SDS011;13193;48.874;9.086;2022-09-27T03:46:25;7.63;;;1.70;;
289;SDS011;13193;48.874;9.086;2022-09-27T03:48:51;11.50;;;1.73;;
289;SDS011;13193;48.874;9.086;2022-09-27T03:51:17;7.77;;;2.27;;
289;SDS011;13193;48.874;9.086;2022-09-27T03:53:42;13.10;;;2.60;;
289;SDS011;13193;48.874;9.086;2022-09-27T03:56:08;12.93;;;1.80;;
289;SDS011;13193;48.874;9.086;2022-09-27T03:58:34;6.53;;;1.90;;
289;SDS011;13193;48.874;9.086;2022-09-27T04:01:00;4.33;;;2.00;;
289;SDS011;13193;48.874;9.086;2022-09-27T04:03:26;4.13;;;1.70;;
289;SDS011;13193;48.874;9.086;2022-09-27T04:05:52;10.80;;;2.47;;
289;SDS011;13193;48.874;9.086;2022-09-27T04:08:18;9.43;;;1.53;;
289;SDS011;13193;48.874;9.086;2022-09-27T04:10:46;4.40;;;1.40;;
289;SDS011;13193;48.874;9.086;2022-09-27T04:13:12;10.03;;;1.73;;
289;SDS011;13193;48.874;9.086;2022-09-27T04:15:38;3.73;;;1.97;;
289;SDS011;13193;48.874;9.086;2022-09-27T04:18:04;7.60;;;1.63;;
289;SDS011;13193;48.874;9.086;2022-09-27T04:20:30;14.53;;;2.47;;
289;SDS011;13193;48.874;9.086;2022-09-27T04:22:56;7.63;;;1.93;;
289;SDS011;13193;48.874;9.086;2022-09-27T04:25:21;16.57;;;2.80;;
289;SDS011;13193;48.874;9.086;2022-09-27T04:27:47;5.57;;;1.73;;
289;SDS011;13193;48.874;9.086;2022-09-27T04:30:16;15.33;;;1.80;;
289;SDS011;13193;48.874;9.086;2022-09-27T04:32:42;8.97;;;1.90;;
289;SDS011;13193;48.874;9.086;2022-09-27T04:35:09;8.10;;;2.43;;
289;SDS011;13193;48.874;9.086;2022-09-27T04:37:54;9.80;;;2.30;;
289;SDS011;13193;48.874;9.086;2022-09-27T04:40:20;3.43;;;1.60;;
289;SDS011;13193;48.874;9.086;2022-09-27T04:42:49;2.23;;;1.33;;
289;SDS011;13193;48.874;9.086;2022-09-27T04:45:16;2.63;;;1.20;;
289;SDS011;13193;48.874;9.086;2022-09-27T04:47:46;4.23;;;2.37;;
289;SDS011;13193;48.874;9.086;2022-09-27T04:50:13;7.27;;;2.17;;
289;SDS011;13193;48.874;9.086;2022-09-27T04:52:40;9.23;;;1.67;;
289;SDS011;13193;48.874;9.086;2022-09-27T04:55:06;5.47;;;1.53;;
289;SDS011;13193;48.874;9.086;2022-09-27T04:57:32;5.63;;;1.53;;
289;SDS011;13193;48.874;9.086;2022-09-27T04:59:58;12.70;;;2.17;;
289;SDS011;13193;48.874;9.086;2022-09-27T05:02:25;4.17;;;1.20;;
289;SDS011;13193;48.874;9.086;2022-09-27T05:04:51;6.17;;;1.30;;
289;SDS011;13193;48.874;9.086;2022-09-27T05:07:20;4.13;;;1.63;;
289;SDS011;13193;48.874;9.086;2022-09-27T05:09:46;4.57;;;1.27;;
289;SDS011;13193;48.874;9.086;2022-09-27T05:12:11;12.00;;;1.07;;
289;SDS011;13193;48.874;9.086;2022-09-27T05:14:37;4.93;;;2.00;;
289;SDS011;13193;48.874;9.086;2022-09-27T05:17:03;2.70;;;0.90;;
289;SDS011;13193;48.874;9.086;2022-09-27T05:19:31;2.00;;;1.10;;
289;SDS011;13193;48.874;9.086;2022-09-27T05:21:58;9.43;;;1.10;;
289;SDS011;13193;48.874;9.086;2022-09-27T05:24:24;2.03;;;0.93;;
289;SDS011;13193;48.874;9.086;2022-09-27T05:26:51;5.70;;;1.37;;
289;SDS011;13193;48.874;9.086;2022-09-27T05:29:20;4.33;;;1.77;;
289;SDS011;13193;48.874;9.086;2022-09-27T05:31:46;5.10;;;1.03;;
289;SDS011;13193;48.874;9.086;2022-09-27T05:34:11;2.73;;;1.20;;
289;SDS011;13193;48.874;9.086;2022-09-27T05:36:37;2.60;;;0.97;;
289;SDS011;13193;48.874;9.086;2022-09-27T05:39:03;2.33;;;1.00;;
289;SDS011;13193;48.874;9.086;2022-09-27T05:41:29;3.73;;;1.10;;
289;SDS011;13193;48.874;9.086;2022-09-27T05:43:56;4.47;;;1.10;;
289;SDS011;13193;48.874;9.086;2022-09-27T05:46:22;4.10;;;1.10;;
289;SDS011;13193;48.874;9.086;2022-09-27T05:48:48;4.70;;;1.30;;
289;SDS011;13193;48.874;9.086;2022-09-27T05:51:14;4.43;;;2.10;;
289;SDS011;13193;48.874;9.086;2022-09-27T05:53:39;3.10;;;1.70;;
289;SDS011;13193;48.874;9.086;2022-09-27T05:56:05;1.93;;;1.20;;
289;SDS011;13193;48.874;9.086;2022-09-27T05:58:31;3.00;;;1.27;;
289;SDS011;13193;48.874;9.086;2022-09-27T06:00:58;9.07;;;1.70;;
289;SDS011;13193;48.874;9.086;2022-09-27T06:03:24;4.13;;;1.40;;
289;SDS011;13193;48.874;9.086;2022-09-27T06:05:50;6.20;;;1.03;;
289;SDS011;13193;48.874;9.086;2022-09-27T06:08:15;4.60;;;1.30;;
289;SDS011;13193;48.874;9.086;2022-09-27T06:10:43;4.50;;;1.50;;
289;SDS011;13193;48.874;9.086;2022-09-27T06:13:10;3.67;;;1.30;;
289;SDS011;13193;48.874;9.086;2022-09-27T06:15:38;5.83;;;1.90;;
289;SDS011;13193;48.874;9.086;2022-09-27T06:18:07;2.03;;;1.00;;
289;SDS011;13193;48.874;9.086;2022-09-27T06:20:37;2.30;;;1.07;;
289;SDS011;13193;48.874;9.086;2022-09-27T06:23:17;2.90;;;1.27;;
289;SDS011;13193;48.874;9.086;2022-09-27T06:25:44;3.30;;;1.03;;
289;SDS011;13193;48.874;9.086;2022-09-27T06:28:11;2.57;;;1.20;;
289;SDS011;13193;48.874;9.086;2022-09-27T06:30:38;4.57;;;1.20;;
289;SDS011;13193;48.874;9.086;2022-09-27T06:33:06;2.07;;;0.90;;
289;SDS011;13193;48.874;9.086;2022-09-27T06:35:35;2.10;;;1.10;;
289;SDS011;13193;48.874;9.086;2022-09-27T06:38:05;3.30;;;1.07;;
289;SDS011;13193;48.874;9.086;2022-09-27T06:40:34;2.20;;;1.00;;
289;SDS011;13193;48.874;9.086;2022-09-27T06:43:01;5.47;;;0.90;;
289;SDS011;13193;48.874;9.086;2022-09-27T06:45:32;1.43;;;0.90;;
289;SDS011;13193;48.874;9.086;2022-09-27T06:47:59;2.37;;;0.90;;
289;SDS011;13193;48.874;9.086;2022-09-27T06:50:29;5.33;;;0.83;;
289;SDS011;13193;48.874;9.086;2022-09-27T06:52:59;2.30;;;1.00;;
289;SDS011;13193;48.874;9.086;2022-09-27T06:55:25;1.77;;;0.63;;
289;SDS011;13193;48.874;9.086;2022-09-27T06:57:54;1.83;;;0.80;;
289;SDS011;13193;48.874;9.086;2022-09-27T07:00:39;2.30;;;0.90;;
289;SDS011;13193;48.874;9.086;2022-09-27T07:03:07;1.40;;;0.60;;
289;SDS011;13193;48.874;9.086;2022-09-27T07:05:38;1.83;;;0.60;;
289;SDS011;13193;48.874;9.086;2022-09-27T07:08:06;2.20;;;0.70;;
289;SDS011;13193;48.874;9.086;2022-09-27T07:10:38;2.13;;;0.80;;
289;SDS011;13193;48.874;9.086;2022-09-27T07:13:05;2.50;;;0.60;;
289;SDS011;13193;48.874;9.086;2022-09-27T07:15:33;2.07;;;0.57;;
289;SDS011;13193;48.874;9.086;2022-09-27T07:18:02;2.90;;;0.90;;
289;SDS011;13193;48.874;9.086;2022-09-27T07:20:29;2.43;;;0.67;;
289;SDS011;13193;48.874;9.086;2022-09-27T07:22:55;1.77;;;0.60;;
289;SDS011;13193;48.874;9.086;2022-09-27T07:25:21;1.90;;;0.60;;
289;SDS011;13193;48.874;9.086;2022-09-27T07:27:47;1.03;;;0.63;;
289;SDS011;13193;48.874;9.086;2022-09-27T07:30:13;1.83;;;0.40;;
289;SDS011;13193;48.874;9.086;2022-09-27T07:32:41;1.80;;;0.60;;
289;SDS011;13193;48.874;9.086;2022-09-27T07:35:08;2.00;;;0.83;;
289;SDS011;13193;48.874;9.086;2022-09-27T07:37:37;1.60;;;0.60;;
289;SDS011;13193;48.874;9.086;2022-09-27T07:40:10;1.23;;;0.67;;
289;SDS011;13193;48.874;9.086;2022-09-27T07:42:43;3.00;;;1.20;;
289;SDS011;13193;48.874;9.086;2022-09-27T07:45:14;3.93;;;1.10;;
289;SDS011;13193;48.874;9.086;2022-09-27T07:47:41;2.13;;;0.80;;
289;SDS011;13193;48.874;9.086;2022-09-27T07:50:17;13.57;;;1.60;;
289;SDS011;13193;48.874;9.086;2022-09-27T07:52:48;4.30;;;1.30;;
289;SDS011;13193;48.874;9.086;2022-09-27T07:55:29;1.60;;;0.70;;
289;SDS011;13193;48.874;9.086;2022-09-27T07:58:16;1.50;;;0.93;;
289;SDS011;13193;48.874;9.086;2022-09-27T08:00:52;2.30;;;0.83;;
289;SDS011;13193;48.874;9.086;2022-09-27T08:03:22;1.43;;;0.73;;
289;SDS011;13193;48.874;9.086;2022-09-27T08:05:56;2.10;;;0.80;;
289;SDS011;13193;48.874;9.086;2022-09-27T08:08:35;1.87;;;0.70;;
289;SDS011;13193;48.874;9.086;2022-09-27T08:11:09;1.93;;;0.93;;
289;SDS011;13193;48.874;9.086;2022-09-27T08:13:38;1.97;;;1.07;;
289;SDS011;13193;48.874;9.086;2022-09-27T08:16:04;1.47;;;0.70;;
289;SDS011;13193;48.874;9.086;2022-09-27T08:18:30;20.43;;;2.03;;
289;SDS011;13193;48.874;9.086;2022-09-27T08:20:56;2.73;;;1.07;;
289;SDS011;13193;48.874;9.086;2022-09-27T08:23:22;2.60;;;0.93;;
289;SDS011;13193;48.874;9.086;2022-09-27T08:25:51;1.23;;;0.60;;
289;SDS011;13193;48.874;9.086;2022-09-27T08:28:18;2.40;;;1.00;;
289;SDS011;13193;48.874;9.086;2022-09-27T08:30:47;3.00;;;0.97;;
289;SDS011;13193;48.874;9.086;2022-09-27T08:33:13;3.83;;;1.00;;
289;SDS011;13193;48.874;9.086;2022-09-27T08:35:38;1.50;;;0.70;;
289;SDS011;13193;48.874;9.086;2022-09-27T08:38:04;1.30;;;0.60;;
289;SDS011;13193;48.874;9.086;2022-09-27T08:41:21;1.20;;;0.80;;
289;SDS011;13193;48.874;9.086;2022-09-27T08:48:47;1.43;;;0.77;;
289;SDS011;13193;48.874;9.086;2022-09-27T08:51:25;3.23;;;0.80;;
289;SDS011;13193;48.874;9.086;2022-09-27T08:54:00;3.00;;;0.97;;
289;SDS011;13193;48.874;9.086;2022-09-27T08:56:31;3.00;;;0.80;;
289;SDS011;13193;48.874;9.086;2022-09-27T08:59:15;6.37;;;1.47;;
289;SDS011;13193;48.874;9.086;2022-09-27T09:01:46;5.00;;;1.30;;
289;SDS011;13193;48.874;9.086;2022-09-27T09:04:14;3.50;;;1.23;;
289;SDS011;13193;48.874;9.086;2022-09-27T09:13:04;3.93;;;1.20;;
289;SDS011;13193;48.874;9.086;2022-09-27T09:15:59;2.03;;;1.10;;
289;SDS011;13193;48.874;9.086;2022-09-27T09:21:53;2.50;;;1.10;;
289;SDS011;13193;48.874;9.086;2022-09-27T09:27:19;7.37;;;1.50;;
289;SDS011;13193;48.874;9.086;2022-09-27T09:32:24;5.63;;;1.40;;
289;SDS011;13193;48.874;9.086;2022-09-27T09:35:16;8.43;;;1.80;;
289;SDS011;13193;48.874;9.086;2022-09-27T09:38:09;2.27;;;0.90;;
289;SDS011;13193;48.874;9.086;2022-09-27T09:40:39;2.80;;;1.17;;
289;SDS011;13193;48.874;9.086;2022-09-27T09:43:15;3.85;;;1.30;;
289;SDS011;13193;48.874;9.086;2022-09-27T09:45:49;3.07;;;1.50;;
289;SDS011;13193;48.874;9.086;2022-09-27T09:50:52;4.00;;;1.43;;
289;SDS011;13193;48.874;9.086;2022-09-27T09:53:21;3.10;;;1.37;;
289;SDS011;13193;48.874;9.086;2022-09-27T10:01:45;5.33;;;1.90;;
289;SDS011;13193;48.874;9.086;2022-09-27T10:04:19;6.50;;;1.70;;
289;SDS011;13193;48.874;9.086;2022-09-27T10:06:48;4.20;;;1.40;;
289;SDS011;13193;48.874;9.086;2022-09-27T10:09:14;4.63;;;2.00;;
289;SDS011;13193;48.874;9.086;2022-09-27T10:11:43;6.70;;;0.83;;
289;SDS011;13193;48.874;9.086;2022-09-27T10:14:10;6.23;;;1.80;;
289;SDS011;13193;48.874;9.086;2022-09-27T10:16:38;3.33;;;0.90;;
289;SDS011;13193;48.874;9.086;2022-09-27T10:19:07;1.57;;;1.00;;
289;SDS011;13193;48.874;9.086;2022-09-27T10:21:34;5.20;;;1.20;;
289;SDS011;13193;48.874;9.086;2022-09-27T10:24:16;5.87;;;1.10;;
289;SDS011;13193;48.874;9.086;2022-09-27T10:26:45;5.07;;;1.07;;
289;SDS011;13193;48.874;9.086;2022-09-27T10:31:44;3.73;;;1.10;;
289;SDS011;13193;48.874;9.086;2022-09-27T10:34:31;3.93;;;1.07;;
289;SDS011;13193;48.874;9.086;2022-09-27T10:37:06;4.53;;;1.30;;
289;SDS011;13193;48.874;9.086;2022-09-27T10:39:48;2.67;;;0.97;;
289;SDS011;13193;48.874;9.086;2022-09-27T10:42:30;7.53;;;1.20;;
289;SDS011;13193;48.874;9.086;2022-09-27T10:44:57;5.30;;;1.30;;
289;SDS011;13193;48.874;9.086;2022-09-27T10:47:43;2.43;;;1.03;;
289;SDS011;13193;48.874;9.086;2022-09-27T10:50:10;3.10;;;1.30;;
289;SDS011;13193;48.874;9.086;2022-09-27T10:52:45;2.63;;;1.20;;
289;SDS011;13193;48.874;9.086;2022-09-27T10:55:24;9.37;;;1.20;;
289;SDS011;13193;48.874;9.086;2022-09-27T10:57:52;5.50;;;1.83;;
289;SDS011;13193;48.874;9.086;2022-09-27T11:00:30;3.67;;;1.43;;
289;SDS011;13193;48.874;9.086;2022-09-27T11:03:02;5.37;;;1.73;;
289;SDS011;13193;48.874;9.086;2022-09-27T11:05:38;10.73;;;1.87;;
289;SDS011;13193;48.874;9.086;2022-09-27T11:10:42;10.47;;;1.70;;
289;SDS011;13193;48.874;9.086;2022-09-27T11:13:12;4.63;;;1.40;;
289;SDS011;13193;48.874;9.086;2022-09-27T11:21:04;6.60;;;1.80;;
289;SDS011;13193;48.874;9.086;2022-09-27T11:23:42;3.00;;;1.83;;
289;SDS011;13193;48.874;9.086;2022-09-27T11:31:30;3.53;;;1.90;;
289;SDS011;13193;48.874;9.086;2022-09-27T11:34:28;2.80;;;1.50;;
289;SDS011;13193;48.874;9.086;2022-09-27T11:56:29;1.60;;;0.80;;
289;SDS011;13193;48.874;9.086;2022-09-27T11:59:13;2.33;;;0.70;;
289;SDS011;13193;48.874;9.086;2022-09-27T12:02:02;1.50;;;0.73;;
289;SDS011;13193;48.874;9.086;2022-09-27T12:07:35;4.30;;;0.90;;
289;SDS011;13193;48.874;9.086;2022-09-27T12:10:15;1.77;;;0.70;;
289;SDS011;13193;48.874;9.086;2022-09-27T12:12:43;1.50;;;0.60;;
289;SDS011;13193;48.874;9.086;2022-09-27T12:15:18;1.07;;;0.60;;
289;SDS011;13193;48.874;9.086;2022-09-27T12:17:48;2.50;;;0.50;;
289;SDS011;13193;48.874;9.086;2022-09-27T12:22:52;1.20;;;0.70;;
289;SDS011;13193;48.874;9.086;2022-09-27T12:25:22;1.20;;;0.53;;
289;SDS011;13193;48.874;9.086;2022-09-27T12:28:03;4.43;;;1.07;;
289;SDS011;13193;48.874;9.086;2022-09-27T12:30:37;2.17;;;0.90;;
289;SDS011;13193;48.874;9.086;2022-09-27T12:33:22;1.50;;;0.70;;
289;SDS011;13193;48.874;9.086;2022-09-27T12:35:56;2.03;;;0.93;;
289;SDS011;13193;48.874;9.086;2022-09-27T12:38:39;1.30;;;0.70;;
289;SDS011;13193;48.874;9.086;2022-09-27T12:41:06;2.30;;;0.70;;
289;SDS011;13193;48.874;9.086;2022-09-27T12:43:35;2.00;;;0.80;;
289;SDS011;13193;48.874;9.086;2022-09-27T12:46:16;2.70;;;0.70;;
289;SDS011;13193;48.874;9.086;2022-09-27T12:49:12;2.30;;;0.83;;
289;SDS011;13193;48.874;9.086;2022-09-27T12:51:42;1.87;;;0.83;;
289;SDS011;13193;48.874;9.086;2022-09-27T13:03:23;8.80;;;1.47;;
289;SDS011;13193;48.874;9.086;2022-09-27T13:05:58;4.60;;;1.73;;
289;SDS011;13193;48.874;9.086;2022-09-27T13:14:19;3.53;;;1.33;;
289;SDS011;13193;48.874;9.086;2022-09-27T13:16:48;1.30;;;0.90;;
289;SDS011;13193;48.874;9.086;2022-09-27T13:19:35;3.10;;;1.13;;
289;SDS011;13193;48.874;9.086;2022-09-27T13:24:52;4.30;;;1.70;;
289;SDS011;13193;48.874;9.086;2022-09-27T13:29:47;5.70;;;1.13;;
289;SDS011;13193;48.874;9.086;2022-09-27T13:32:14;3.57;;;1.07;;
289;SDS011;13193;48.874;9.086;2022-09-27T13:45:56;3.70;;;1.67;;
289;SDS011;13193;48.874;9.086;2022-09-27T13:48:27;2.93;;;1.40;;
289;SDS011;13193;48.874;9.086;2022-09-27T13:53:55;2.80;;;1.80;;
289;SDS011;13193;48.874;9.086;2022-09-27T13:59:13;2.30;;;1.13;;
289;SDS011;13193;48.874;9.086;2022-09-27T14:01:51;3.30;;;1.50;;
289;SDS011;13193;48.874;9.086;2022-09-27T14:04:43;2.60;;;1.10;;
289;SDS011;13193;48.874;9.086;2022-09-27T14:07:11;5.77;;;2.00;;
289;SDS011;13193;48.874;9.086;2022-09-27T14:09:42;3.70;;;2.10;;
289;SDS011;13193;48.874;9.086;2022-09-27T14:12:17;7.37;;;2.40;;
289;SDS011;13193;48.874;9.086;2022-09-27T14:14:45;5.30;;;1.67;;
289;SDS011;13193;48.874;9.086;2022-09-27T14:17:13;4.57;;;2.57;;
289;SDS011;13193;48.874;9.086;2022-09-27T14:19:40;7.00;;;3.13;;
289;SDS011;13193;48.874;9.086;2022-09-27T14:22:14;5.10;;;2.57;;
289;SDS011;13193;48.874;9.086;2022-09-27T14:27:22;5.43;;;2.13;;
289;SDS011;13193;48.874;9.086;2022-09-27T14:29:53;7.60;;;2.43;;
289;SDS011;13193;48.874;9.086;2022-09-27T14:32:22;8.03;;;2.20;;
289;SDS011;13193;48.874;9.086;2022-09-27T14:35:02;4.13;;;1.70;;
289;SDS011;13193;48.874;9.086;2022-09-27T14:37:56;2.00;;;1.30;;
289;SDS011;13193;48.874;9.086;2022-09-27T14:40:23;4.07;;;2.20;;
289;SDS011;13193;48.874;9.086;2022-09-27T14:42:54;7.60;;;2.37;;
289;SDS011;13193;48.874;9.086;2022-09-27T14:47:55;7.47;;;2.23;;
289;SDS011;13193;48.874;9.086;2022-09-27T14:50:26;4.60;;;2.50;;
289;SDS011;13193;48.874;9.086;2022-09-27T14:52:54;7.00;;;1.90;;
289;SDS011;13193;48.874;9.086;2022-09-27T14:55:23;4.80;;;1.40;;
289;SDS011;13193;48.874;9.086;2022-09-27T14:57:57;8.20;;;5.80;;
289;SDS011;13193;48.874;9.086;2022-09-27T15:00:27;11.50;;;7.10;;
289;SDS011;13193;48.874;9.086;2022-09-27T15:02:57;5.73;;;3.83;;
289;SDS011;13193;48.874;9.086;2022-09-27T15:05:28;15.23;;;1.80;;
289;SDS011;13193;48.874;9.086;2022-09-27T15:07:56;2.93;;;2.47;;
289;SDS011;13193;48.874;9.086;2022-09-27T15:10:26;2.13;;;1.10;;
289;SDS011;13193;48.874;9.086;2022-09-27T15:12:55;4.10;;;2.30;;
289;SDS011;13193;48.874;9.086;2022-09-27T15:15:28;2.33;;;1.00;;
289;SDS011;13193;48.874;9.086;2022-09-27T15:18:03;4.40;;;1.53;;
289;SDS011;13193;48.874;9.086;2022-09-27T15:21:05;1.40;;;0.87;;
289;SDS011;13193;48.874;9.086;2022-09-27T15:23:39;7.57;;;1.30;;
289;SDS011;13193;48.874;9.086;2022-09-27T15:28:46;3.37;;;1.20;;
289;SDS011;13193;48.874;9.086;2022-09-27T15:31:16;3.27;;;1.40;;
289;SDS011;13193;48.874;9.086;2022-09-27T15:33:44;2.67;;;1.50;;
289;SDS011;13193;48.874;9.086;2022-09-27T15:36:18;5.20;;;1.60;;
289;SDS011;13193;48.874;9.086;2022-09-27T15:43:12;9.63;;;1.60;;
289;SDS011;13193;48.874;9.086;2022-09-27T15:45:50;8.07;;;2.70;;
289;SDS011;13193;48.874;9.086;2022-09-27T15:48:35;5.83;;;2.30;;
289;SDS011;13193;48.874;9.086;2022-09-27T15:51:08;5.07;;;1.57;;
289;SDS011;13193;48.874;9.086;2022-09-27T15:54:02;6.27;;;2.30;;
289;SDS011;13193;48.874;9.086;2022-09-27T15:56:28;3.83;;;1.80;;
289;SDS011;13193;48.874;9.086;2022-09-27T15:58:53;4.57;;;2.30;;
289;SDS011;13193;48.874;9.086;2022-09-27T16:01:19;12.57;;;7.10;;
289;SDS011;13193;48.874;9.086;2022-09-27T16:03:45;3.97;;;1.60;;
289;SDS011;13193;48.874;9.086;2022-09-27T16:06:11;3.30;;;1.33;;
289;SDS011;13193;48.874;9.086;2022-09-27T16:08:38;4.13;;;1.60;;
289;SDS011;13193;48.874;9.086;2022-09-27T16:11:05;10.17;;;1.57;;
289;SDS011;13193;48.874;9.086;2022-09-27T16:13:30;4.47;;;2.13;;
289;SDS011;13193;48.874;9.086;2022-09-27T16:15:56;8.77;;;2.70;;
289;SDS011;13193;48.874;9.086;2022-09-27T16:18:22;4.57;;;2.13;;
289;SDS011;13193;48.874;9.086;2022-09-27T16:20:47;4.73;;;2.60;;
289;SDS011;13193;48.874;9.086;2022-09-27T16:23:13;8.53;;;2.83;;
289;SDS011;13193;48.874;9.086;2022-09-27T16:25:38;5.23;;;2.07;;
289;SDS011;13193;48.874;9.086;2022-09-27T16:28:04;10.53;;;2.50;;
289;SDS011;13193;48.874;9.086;2022-09-27T16:30:30;5.97;;;3.10;;
289;SDS011;13193;48.874;9.086;2022-09-27T16:32:57;7.30;;;2.70;;
289;SDS011;13193;48.874;9.086;2022-09-27T16:35:23;2.40;;;1.33;;
289;SDS011;13193;48.874;9.086;2022-09-27T16:37:49;7.10;;;2.20;;
289;SDS011;13193;48.874;9.086;2022-09-27T16:40:15;3.10;;;1.30;;
289;SDS011;13193;48.874;9.086;2022-09-27T16:42:46;8.77;;;2.00;;
289;SDS011;13193;48.874;9.086;2022-09-27T16:45:13;5.67;;;1.73;;
289;SDS011;13193;48.874;9.086;2022-09-27T16:47:42;4.20;;;1.77;;
289;SDS011;13193;48.874;9.086;2022-09-27T16:50:09;2.93;;;1.43;;
289;SDS011;13193;48.874;9.086;2022-09-27T16:52:57;4.67;;;2.47;;
289;SDS011;13193;48.874;9.086;2022-09-27T16:55:26;7.33;;;2.50;;
289;SDS011;13193;48.874;9.086;2022-09-27T16:57:53;6.00;;;1.30;;
289;SDS011;13193;48.874;9.086;2022-09-27T17:00:22;3.73;;;1.40;;
289;SDS011;13193;48.874;9.086;2022-09-27T17:02:48;4.70;;;1.57;;
289;SDS011;13193;48.874;9.086;2022-09-27T17:05:14;10.43;;;2.80;;
289;SDS011;13193;48.874;9.086;2022-09-27T17:07:40;2.70;;;1.57;;
289;SDS011;13193;48.874;9.086;2022-09-27T17:10:06;3.57;;;2.20;;
289;SDS011;13193;48.874;9.086;2022-09-27T17:12:32;3.33;;;1.30;;
289;SDS011;13193;48.874;9.086;2022-09-27T17:14:58;4.13;;;1.40;;
289;SDS011;13193;48.874;9.086;2022-09-27T17:17:24;10.13;;;2.47;;
289;SDS011;13193;48.874;9.086;2022-09-27T17:19:50;10.17;;;2.10;;
289;SDS011;13193;48.874;9.086;2022-09-27T17:22:15;3.93;;;1.80;;
289;SDS011;13193;48.874;9.086;2022-09-27T17:24:41;5.93;;;2.10;;
289;SDS011;13193;48.874;9.086;2022-09-27T17:27:07;9.73;;;1.73;;
289;SDS011;13193;48.874;9.086;2022-09-27T17:29:32;6.57;;;1.30;;
289;SDS011;13193;48.874;9.086;2022-09-27T17:32:04;4.70;;;1.40;;
289;SDS011;13193;48.874;9.086;2022-09-27T17:34:32;4.97;;;1.60;;
289;SDS011;13193;48.874;9.086;2022-09-27T17:36:58;4.60;;;1.63;;
289;SDS011;13193;48.874;9.086;2022-09-27T17:39:24;4.40;;;1.50;;
289;SDS011;13193;48.874;9.086;2022-09-27T17:41:50;4.13;;;1.40;;
289;SDS011;13193;48.874;9.086;2022-09-27T17:44:23;6.50;;;2.00;;
289;SDS011;13193;48.874;9.086;2022-09-27T17:46:55;7.50;;;1.93;;
289;SDS011;13193;48.874;9.086;2022-09-27T17:49:39;3.00;;;1.30;;
289;SDS011;13193;48.874;9.086;2022-09-27T17:52:23;3.27;;;1.67;;
289;SDS011;13193;48.874;9.086;2022-09-27T17:54:50;3.70;;;1.47;;
289;SDS011;13193;48.874;9.086;2022-09-27T17:57:19;2.40;;;1.37;;
289;SDS011;13193;48.874;9.086;2022-09-27T17:59:45;5.23;;;1.60;;
289;SDS011;13193;48.874;9.086;2022-09-27T18:02:11;3.70;;;1.23;;
289;SDS011;13193;48.874;9.086;2022-09-27T18:04:36;3.83;;;1.63;;
289;SDS011;13193;48.874;9.086;2022-09-27T18:07:17;2.90;;;1.20;;
289;SDS011;13193;48.874;9.086;2022-09-27T18:13:05;11.10;;;1.60;;
289;SDS011;13193;48.874;9.086;2022-09-27T18:18:54;5.40;;;1.60;;
289;SDS011;13193;48.874;9.086;2022-09-27T18:24:42;3.90;;;1.07;;
289;SDS011;13193;48.874;9.086;2022-09-27T18:27:07;5.93;;;1.37;;
289;SDS011;13193;48.874;9.086;2022-09-27T18:29:33;3.53;;;1.13;;
289;SDS011;13193;48.874;9.086;2022-09-27T18:31:59;4.70;;;1.20;;
289;SDS011;13193;48.874;9.086;2022-09-27T18:34:29;5.90;;;1.07;;